Time;durP1;ratioP1;P1;durP2;ratioP2;P2;SDS_P1;SDS_P2;PMS_P1;PMS_P2;Temp;Humidity;BMP_temperature;BMP_pressure;BME280_temperature;BME280_humidity;BME280_pressure;Samples;Min_cycle;Max_cycle;Signal;HPM_P1;HPM_P2
2022/04/25 00:01:04;;;;;;;23.17;18.23;;;;;;;9.53;100.00;95690.34;5032848;28;20222;-74
2022/04/25 00:03:29;;;;;;;20.97;18.27;;;;;;;9.48;100.00;95698.94;5032177;28;20630;-71
2022/04/25 00:05:55;;;;;;;21.23;16.60;;;;;;;9.49;100.00;95700.50;5034739;28;20261;-72
2022/04/25 00:08:20;;;;;;;21.43;18.23;;;;;;;9.42;100.00;95702.53;5036130;28;20540;-73
2022/04/25 00:10:46;;;;;;;20.33;17.13;;;;;;;9.43;100.00;95704.09;5036295;28;20286;-72
2022/04/25 00:13:13;;;;;;;22.07;17.97;;;;;;;9.39;100.00;95707.47;5018102;28;20289;-72
2022/04/25 00:15:39;;;;;;;21.57;18.07;;;;;;;9.64;100.00;95705.09;5018675;28;20201;-72
2022/04/25 00:18:04;;;;;;;20.97;17.60;;;;;;;9.66;100.00;95707.47;5036531;28;20190;-72
2022/04/25 00:20:30;;;;;;;21.60;18.47;;;;;;;9.37;100.00;95701.69;5036383;28;20218;-72
2022/04/25 00:22:55;;;;;;;19.53;17.37;;;;;;;9.57;100.00;95709.75;5036247;28;20262;-74
2022/04/25 00:25:20;;;;;;;21.57;18.53;;;;;;;9.57;100.00;95705.31;5017877;28;20244;-74
2022/04/25 00:27:46;;;;;;;22.17;17.90;;;;;;;9.64;100.00;95705.09;5035787;28;20180;-72
2022/04/25 00:30:11;;;;;;;23.97;19.63;;;;;;;9.50;100.00;95707.31;5035691;28;20285;-72
2022/04/25 00:32:37;;;;;;;23.47;19.37;;;;;;;9.33;100.00;95711.06;5036077;28;20662;-73
2022/04/25 00:35:06;;;;;;;25.03;19.60;;;;;;;9.35;100.00;95707.16;5036006;28;20193;-72
2022/04/25 00:37:31;;;;;;;24.23;19.90;;;;;;;9.28;100.00;95706.56;5036079;28;20229;-73
2022/04/25 00:39:57;;;;;;;26.27;20.93;;;;;;;9.34;100.00;95704.78;5035613;28;20649;-72
2022/04/25 00:42:23;;;;;;;26.03;19.87;;;;;;;9.31;100.00;95702.66;5035858;28;20695;-74
2022/04/25 00:44:48;;;;;;;26.10;20.87;;;;;;;9.28;100.00;95711.78;5035154;28;20309;-74
2022/04/25 00:47:14;;;;;;;24.33;20.60;;;;;;;9.34;100.00;95710.81;5017837;28;20277;-72
2022/04/25 00:49:41;;;;;;;22.77;20.37;;;;;;;9.31;100.00;95707.88;5035470;28;20194;-73
2022/04/25 00:52:06;;;;;;;26.10;20.27;;;;;;;9.45;100.00;95714.31;5017663;28;20218;-73
2022/04/25 00:54:33;;;;;;;24.40;19.83;;;;;;;9.48;100.00;95714.63;5035906;28;20179;-72
2022/04/25 00:56:59;;;;;;;25.50;20.50;;;;;;;9.50;100.00;95717.78;5035576;28;20269;-72
2022/04/25 00:59:25;;;;;;;26.33;21.63;;;;;;;9.35;100.00;95709.00;5035589;28;20222;-73
2022/04/25 01:01:52;;;;;;;26.53;21.83;;;;;;;9.27;100.00;95719.88;5035072;28;20233;-73
2022/04/25 01:04:17;;;;;;;25.50;20.30;;;;;;;9.23;100.00;95710.94;5001289;28;20226;-73
2022/04/25 01:06:43;;;;;;;28.10;22.37;;;;;;;9.24;100.00;95712.53;5035303;28;20183;-71
2022/04/25 01:09:09;;;;;;;27.03;22.30;;;;;;;9.14;100.00;95710.56;5035473;28;20241;-73
2022/04/25 01:11:34;;;;;;;27.63;22.70;;;;;;;9.27;100.00;95710.19;5035132;28;20185;-73
2022/04/25 01:14:23;;;;;;;28.17;23.13;;;;;;;9.16;100.00;95717.16;5034188;28;20360;-73
2022/04/25 01:16:48;;;;;;;29.40;24.53;;;;;;;9.22;100.00;95710.16;5034287;28;20178;-73
2022/04/25 01:19:14;;;;;;;26.03;22.40;;;;;;;9.20;100.00;95714.81;5034902;28;20193;-71
2022/04/25 01:21:50;;;;;;;24.93;22.20;;;;;;;9.19;100.00;95713.25;5034982;28;20190;-73
2022/04/25 01:27:18;;;;;;;28.90;23.47;;;;;;;9.12;100.00;95721.28;5034771;28;20558;-72
2022/04/25 01:29:46;;;;;;;28.00;23.33;;;;;;;9.11;100.00;95719.69;5034866;28;20167;-72
2022/04/25 01:32:12;;;;;;;29.80;22.87;;;;;;;9.05;100.00;95732.94;5022096;28;20214;-73
2022/04/25 01:34:38;;;;;;;32.23;25.17;;;;;;;9.06;100.00;95730.09;5034972;28;20179;-73
2022/04/25 01:37:13;;;;;;;27.23;22.70;;;;;;;9.12;100.00;95733.56;5016773;28;20187;-72
2022/04/25 01:39:40;;;;;;;27.10;23.20;;;;;;;9.12;100.00;95731.75;5034503;28;20204;-72
2022/04/25 01:42:07;;;;;;;28.67;23.27;;;;;;;9.10;100.00;95736.41;5034820;28;20650;-72
2022/04/25 01:44:32;;;;;;;26.20;22.30;;;;;;;9.10;100.00;95731.19;5034449;28;20182;-72
2022/04/25 01:46:58;;;;;;;25.87;21.60;;;;;;;9.15;100.00;95733.06;5035035;28;20544;-73
2022/04/25 01:49:24;;;;;;;26.90;22.03;;;;;;;9.10;100.00;95727.78;5034164;28;20236;-73
2022/04/25 01:51:50;;;;;;;26.33;22.80;;;;;;;8.99;100.00;95732.09;5034235;28;20191;-72
2022/04/25 01:54:23;;;;;;;33.13;23.90;;;;;;;9.04;100.00;95741.81;5034340;28;20704;-72
2022/04/25 01:56:48;;;;;;;29.73;24.43;;;;;;;8.90;100.00;95740.59;4997447;28;20183;-73
2022/04/25 01:59:13;;;;;;;27.93;22.73;;;;;;;8.86;100.00;95739.50;5030432;28;20178;-73
2022/04/25 02:01:39;;;;;;;28.57;22.93;;;;;;;8.95;100.00;95744.06;5034519;28;20523;-72
2022/04/25 02:04:04;;;;;;;28.13;22.73;;;;;;;8.99;100.00;95739.94;5033917;28;20651;-72
2022/04/25 02:06:29;;;;;;;28.57;23.03;;;;;;;9.08;100.00;95746.31;5034239;28;20178;-71
2022/04/25 02:08:55;;;;;;;27.17;23.03;;;;;;;9.17;100.00;95747.47;5034035;28;20592;-72
2022/04/25 02:11:22;;;;;;;28.00;22.70;;;;;;;8.87;100.00;95738.44;5033467;28;20194;-72
2022/04/25 02:13:51;;;;;;;28.83;23.60;;;;;;;8.95;100.00;95743.28;5034104;28;20194;-72
2022/04/25 02:16:18;;;;;;;29.10;23.80;;;;;;;9.01;100.00;95744.91;5033728;28;20592;-72
2022/04/25 02:18:43;;;;;;;28.30;22.20;;;;;;;9.12;100.00;95750.03;5033969;28;20194;-72
2022/04/25 02:21:09;;;;;;;30.23;23.33;;;;;;;9.12;100.00;95746.63;5033645;28;20190;-72
2022/04/25 02:23:34;;;;;;;28.30;22.67;;;;;;;9.18;100.00;95746.47;5033946;28;20193;-73
2022/04/25 02:26:00;;;;;;;27.60;22.43;;;;;;;9.20;100.00;95746.19;5016239;28;20285;-72
2022/04/25 02:28:25;;;;;;;26.60;22.37;;;;;;;9.25;100.00;95750.72;5032704;28;20191;-71
2022/04/25 02:30:51;;;;;;;30.33;24.83;;;;;;;9.17;100.00;95755.31;5033540;28;20233;-71
2022/04/25 02:33:18;;;;;;;27.40;22.70;;;;;;;9.16;100.00;95758.97;5015388;28;20281;-71
2022/04/25 02:35:43;;;;;;;28.53;22.10;;;;;;;9.14;100.00;95753.19;5033705;28;20194;-72
2022/04/25 02:38:09;;;;;;;27.57;22.77;;;;;;;9.28;100.00;95755.44;5015965;28;20179;-73
2022/04/25 02:40:34;;;;;;;28.13;22.33;;;;;;;9.13;100.00;95756.06;5033025;28;20689;-71
2022/04/25 02:42:59;;;;;;;27.90;21.57;;;;;;;9.01;100.00;95750.16;5033873;28;20635;-72
2022/04/25 02:45:25;;;;;;;26.40;21.57;;;;;;;9.10;100.00;95754.72;5033203;28;20178;-73
2022/04/25 02:47:51;;;;;;;27.87;22.73;;;;;;;8.90;100.00;95759.69;5033616;28;20186;-73
2022/04/25 02:50:16;;;;;;;26.07;21.13;;;;;;;9.06;100.00;95765.91;5033242;28;20556;-73
2022/04/25 02:52:42;;;;;;;26.97;21.57;;;;;;;9.01;100.00;95764.00;5015603;28;20241;-73
2022/04/25 02:55:08;;;;;;;28.67;22.83;;;;;;;8.94;100.00;95766.00;5033101;28;20182;-73
2022/04/25 02:57:33;;;;;;;28.60;21.97;;;;;;;8.93;100.00;95761.00;5033064;28;20194;-71
2022/04/25 02:59:58;;;;;;;27.03;21.87;;;;;;;8.92;100.00;95760.22;5033310;28;20191;-72
2022/04/25 03:02:24;;;;;;;28.33;22.23;;;;;;;9.00;100.00;95769.47;5033294;28;20190;-73
2022/04/25 03:04:49;;;;;;;25.60;21.77;;;;;;;9.08;100.00;95774.28;5032847;28;20218;-73
2022/04/25 03:07:14;;;;;;;26.37;22.53;;;;;;;9.06;100.00;95776.34;5032871;28;20593;-72
2022/04/25 03:09:40;;;;;;;28.70;22.57;;;;;;;9.09;100.00;95779.25;5033184;28;20186;-72
2022/04/25 03:12:06;;;;;;;26.63;21.67;;;;;;;9.00;100.00;95783.34;5032497;28;20209;-73
2022/04/25 03:14:31;;;;;;;29.80;24.23;;;;;;;8.98;100.00;95782.78;5033388;28;20198;-73
2022/04/25 03:16:56;;;;;;;25.67;20.97;;;;;;;9.00;100.00;95775.50;5032783;28;20629;-71
2022/04/25 03:19:22;;;;;;;26.90;21.27;;;;;;;8.96;100.00;95782.25;5032983;28;20190;-71
2022/04/25 03:21:47;;;;;;;28.67;22.63;;;;;;;9.04;100.00;95779.19;5033075;28;20178;-73
2022/04/25 03:24:12;;;;;;;28.03;22.47;;;;;;;9.05;100.00;95778.16;5032966;28;20190;-73
2022/04/25 03:26:39;;;;;;;28.90;21.97;;;;;;;8.94;100.00;95781.69;5033199;28;20541;-72
2022/04/25 03:29:05;;;;;;;29.07;23.30;;;;;;;8.76;100.00;95787.94;5032025;28;20697;-72
2022/04/25 03:31:30;;;;;;;27.93;22.63;;;;;;;8.67;100.00;95786.00;5032264;28;20305;-72
2022/04/25 03:33:56;;;;;;;29.93;22.73;;;;;;;8.65;100.00;95783.59;5032398;28;20288;-72
2022/04/25 03:36:21;;;;;;;29.33;23.53;;;;;;;8.53;100.00;95792.53;5031839;28;20194;-72
2022/04/25 03:38:47;;;;;;;30.60;23.53;;;;;;;8.45;100.00;95787.75;5032273;28;20190;-72
2022/04/25 03:41:12;;;;;;;29.37;23.23;;;;;;;8.37;100.00;95796.75;5031809;28;20191;-72
2022/04/25 03:43:38;;;;;;;28.60;24.17;;;;;;;8.44;100.00;95802.59;5032768;28;20191;-72
2022/04/25 03:46:03;;;;;;;32.50;24.87;;;;;;;8.48;100.00;95797.69;5015341;28;20189;-73
2022/04/25 03:48:28;;;;;;;28.77;23.53;;;;;;;8.39;100.00;95805.16;5032564;28;20553;-71
2022/04/25 03:50:54;;;;;;;34.07;25.90;;;;;;;8.43;100.00;95806.25;5032814;28;20273;-73
2022/04/25 03:53:19;;;;;;;33.13;24.37;;;;;;;8.54;100.00;95805.38;5031932;28;20272;-73
2022/04/25 03:58:30;;;;;;;34.77;27.03;;;;;;;8.48;100.00;95808.13;5032723;28;20181;-72
2022/04/25 04:00:56;;;;;;;33.97;25.77;;;;;;;8.62;100.00;95810.22;5032347;28;20213;-72
2022/04/25 04:03:22;;;;;;;33.27;25.30;;;;;;;8.74;100.00;95812.75;5032319;28;20266;-71
2022/04/25 04:05:48;;;;;;;32.53;25.73;;;;;;;8.65;100.00;95817.56;5032134;28;20313;-72
2022/04/25 04:08:14;;;;;;;31.40;24.90;;;;;;;8.41;100.00;95817.97;5032397;28;20265;-71
2022/04/25 04:10:40;;;;;;;31.73;24.37;;;;;;;8.44;100.00;95822.72;5032276;28;20341;-71
2022/04/25 04:13:05;;;;;;;32.57;25.13;;;;;;;8.47;100.00;95830.09;5032382;28;20202;-72
2022/04/25 04:15:31;;;;;;;31.60;25.73;;;;;;;8.43;100.00;95829.75;5032167;28;20696;-74
2022/04/25 04:17:57;;;;;;;31.77;24.37;;;;;;;8.46;100.00;95825.88;5032653;28;20178;-72
2022/04/25 04:20:23;;;;;;;34.50;25.03;;;;;;;8.56;100.00;95837.28;5032140;28;20202;-73
2022/04/25 04:22:48;;;;;;;32.47;25.27;;;;;;;8.60;100.00;95840.19;5032274;28;20222;-72
2022/04/25 04:25:14;;;;;;;32.37;24.37;;;;;;;8.52;100.00;95835.38;5031963;28;20627;-72
2022/04/25 04:27:40;;;;;;;33.13;24.97;;;;;;;8.82;100.00;95842.88;5013074;28;20262;-73
2022/04/25 04:30:10;;;;;;;32.13;25.63;;;;;;;8.75;100.00;95841.22;5032256;28;20191;-73
2022/04/25 04:32:38;;;;;;;31.90;25.50;;;;;;;8.70;100.00;95846.38;5014720;28;20281;-72
2022/04/25 04:35:13;;;;;;;32.30;24.27;;;;;;;8.77;100.00;95847.00;5032083;28;20221;-72
2022/04/25 04:37:39;;;;;;;30.03;23.67;;;;;;;8.80;100.00;95852.81;5031744;28;20669;-73
2022/04/25 04:42:51;;;;;;;31.17;23.47;;;;;;;8.88;100.00;95855.78;5032272;28;20190;-72
2022/04/25 04:45:16;;;;;;;29.47;23.27;;;;;;;8.96;100.00;95858.03;5014301;28;20187;-72
2022/04/25 04:47:42;;;;;;;28.37;22.10;;;;;;;8.94;100.00;95860.06;5014069;28;20241;-74
2022/04/25 04:50:16;;;;;;;28.67;23.40;;;;;;;9.00;100.00;95864.34;5014573;28;20289;-74
2022/04/25 04:52:49;;;;;;;28.63;22.83;;;;;;;9.05;100.00;95871.47;5035726;28;20559;-72
2022/04/25 04:55:15;;;;;;;27.57;22.57;;;;;;;9.08;100.00;95868.38;5035414;28;20186;-73
2022/04/25 04:57:42;;;;;;;27.60;22.07;;;;;;;9.40;100.00;95876.41;5035295;28;20179;-74
2022/04/25 05:00:13;;;;;;;28.57;22.80;;;;;;;9.42;100.00;95882.97;5035385;28;20273;-73
2022/04/25 05:02:39;;;;;;;25.93;21.33;;;;;;;9.24;100.00;95882.47;5034621;28;20179;-74
2022/04/25 05:05:05;;;;;;;25.60;21.27;;;;;;;9.23;100.00;95884.28;5035355;28;20546;-73
2022/04/25 05:07:31;;;;;;;24.33;20.63;;;;;;;9.28;100.00;95888.78;5034847;28;20279;-74
2022/04/25 05:09:56;;;;;;;26.90;21.53;;;;;;;9.42;100.00;95892.63;5035356;28;20269;-73
2022/04/25 05:12:22;;;;;;;25.23;21.33;;;;;;;9.39;100.00;95898.38;5035205;28;20208;-73
2022/04/25 05:14:47;;;;;;;26.10;22.10;;;;;;;9.35;100.00;95897.28;5035095;28;20221;-73
2022/04/25 05:17:12;;;;;;;23.70;19.80;;;;;;;9.42;100.00;95893.44;5017513;28;20178;-73
2022/04/25 05:19:38;;;;;;;27.20;21.80;;;;;;;9.53;100.00;95899.59;5034948;28;20634;-74
2022/04/25 05:22:04;;;;;;;24.13;20.23;;;;;;;9.71;100.00;95907.16;5034861;28;20637;-73
2022/04/25 05:24:29;;;;;;;24.77;20.67;;;;;;;9.56;100.00;95906.97;5034628;28;20205;-73
2022/04/25 05:26:54;;;;;;;24.33;21.27;;;;;;;9.88;100.00;95912.34;5034705;28;20178;-73
2022/04/25 05:29:20;;;;;;;25.47;20.23;;;;;;;9.68;100.00;95909.50;5034232;28;20194;-73
2022/04/25 05:31:45;;;;;;;26.83;20.47;;;;;;;9.68;100.00;95909.50;5034466;28;20191;-73
2022/04/25 05:34:14;;;;;;;26.40;20.67;;;;;;;9.81;100.00;95917.75;5034787;28;20669;-72
2022/04/25 05:36:39;;;;;;;23.20;19.03;;;;;;;9.79;100.00;95913.81;5034559;28;20659;-72
2022/04/25 05:39:05;;;;;;;25.17;20.47;;;;;;;10.00;100.00;95907.78;5035230;28;20198;-74
2022/04/25 05:41:30;;;;;;;24.97;20.43;;;;;;;10.00;100.00;95905.97;5034589;28;20186;-73
2022/04/25 05:43:56;;;;;;;25.07;19.90;;;;;;;10.28;100.00;95912.06;5034424;28;20309;-72
2022/04/25 05:46:21;;;;;;;21.90;18.63;;;;;;;10.70;97.82;95917.47;5034149;28;20197;-71
2022/04/25 05:54:15;;;;;;;20.53;17.20;;;;;;;10.83;95.76;95922.28;5034272;28;20648;-73
2022/04/25 05:56:40;;;;;;;18.70;16.67;;;;;;;10.87;95.80;95923.38;5033980;28;20195;-72
2022/04/25 05:59:06;;;;;;;20.03;17.07;;;;;;;11.04;94.82;95929.28;5033773;28;20190;-72
2022/04/25 06:01:31;;;;;;;19.13;16.03;;;;;;;11.28;94.33;95924.50;5034293;28;20270;-72
2022/04/25 06:03:56;;;;;;;17.47;15.60;;;;;;;11.45;93.20;95932.22;5032683;28;20305;-73
2022/04/25 06:06:23;;;;;;;17.80;15.23;;;;;;;11.55;91.50;95934.91;5016413;28;20633;-73
2022/04/25 06:08:49;;;;;;;16.60;14.50;;;;;;;11.49;89.92;95928.03;5034078;28;20183;-72
2022/04/25 06:11:15;;;;;;;18.60;14.60;;;;;;;11.43;90.38;95934.28;5033544;28;20189;-72
2022/04/25 06:13:44;;;;;;;16.97;14.80;;;;;;;11.95;89.21;95937.00;5033716;28;20203;-74
2022/04/25 06:16:13;;;;;;;16.23;14.00;;;;;;;12.31;85.77;95932.69;5034185;28;20183;-72
2022/04/25 06:18:38;;;;;;;15.63;13.33;;;;;;;12.39;85.64;95929.53;5034215;28;20529;-73
2022/04/25 06:21:04;;;;;;;14.00;12.47;;;;;;;12.23;83.61;95928.69;5034050;28;20197;-74
2022/04/25 06:23:30;;;;;;;17.93;13.77;;;;;;;11.71;86.40;95928.69;5033236;28;20186;-74
2022/04/25 06:25:56;;;;;;;15.70;13.50;;;;;;;11.76;85.18;95926.13;5033937;28;20277;-73
2022/04/25 06:28:24;;;;;;;14.80;13.00;;;;;;;11.88;84.26;95931.16;5033119;28;20290;-73
2022/04/25 06:30:50;;;;;;;15.27;13.57;;;;;;;12.32;83.76;95923.72;5033059;28;20190;-71
2022/04/25 06:33:15;;;;;;;16.00;13.53;;;;;;;12.84;80.46;95931.47;5033618;28;20199;-73
2022/04/25 06:35:41;;;;;;;14.73;13.23;;;;;;;12.57;81.06;95931.69;5033165;28;20634;-74
2022/04/25 06:38:06;;;;;;;16.07;13.83;;;;;;;13.11;79.55;95937.28;5033437;28;20190;-73
2022/04/25 06:40:32;;;;;;;16.17;12.53;;;;;;;13.39;78.72;95935.19;5033442;28;20241;-72
2022/04/25 06:42:58;;;;;;;17.30;12.97;;;;;;;13.30;77.35;95950.72;4999168;28;20187;-72
2022/04/25 06:45:23;;;;;;;13.73;12.23;;;;;;;13.36;78.35;95949.69;5020114;28;20180;-71
2022/04/25 06:47:50;;;;;;;12.80;11.40;;;;;;;13.31;76.73;95942.59;5015737;28;20715;-72
2022/04/25 06:50:15;;;;;;;13.37;11.97;;;;;;;13.26;76.92;95947.81;5024996;28;20183;-73
2022/04/25 06:52:41;;;;;;;13.50;12.10;;;;;;;12.93;78.63;95943.03;5030456;28;20217;-72
2022/04/25 06:55:07;;;;;;;15.03;12.13;;;;;;;12.45;78.97;95944.28;5029817;28;20178;-72
2022/04/25 06:57:33;;;;;;;15.37;12.67;;;;;;;12.13;80.55;95948.91;5022968;28;20227;-71
2022/04/25 07:00:04;;;;;;;14.07;12.57;;;;;;;13.04;77.67;95949.13;5032742;28;20217;-72
2022/04/25 07:02:29;;;;;;;14.03;12.17;;;;;;;13.17;76.00;95944.16;5031969;28;20190;-72
2022/04/25 07:04:55;;;;;;;13.50;12.10;;;;;;;12.63;77.87;95945.63;5033082;28;20730;-72
2022/04/25 07:07:21;;;;;;;14.33;12.83;;;;;;;12.82;77.71;95946.72;5014374;28;20191;-72
2022/04/25 07:09:47;;;;;;;15.10;12.73;;;;;;;12.60;79.36;95949.56;5028996;28;20225;-72
2022/04/25 07:12:12;;;;;;;13.77;12.27;;;;;;;12.32;79.90;95944.75;5031568;28;20285;-71
2022/04/25 07:14:38;;;;;;;14.70;12.40;;;;;;;12.47;80.87;95950.88;5031415;28;20269;-72
2022/04/25 07:17:04;;;;;;;15.40;12.43;;;;;;;12.23;81.82;95948.94;5032649;28;20695;-71
2022/04/25 07:19:30;;;;;;;15.00;13.40;;;;;;;12.34;81.78;95948.72;5014714;28;20190;-71
2022/04/25 07:30:08;;;;;;;14.33;12.40;;;;;;;11.76;82.68;95954.22;5031789;28;20182;-70
2022/04/25 07:32:37;;;;;;;13.90;12.23;;;;;;;11.74;83.52;95951.06;5032185;28;20253;-70
2022/04/25 07:35:06;;;;;;;15.90;13.57;;;;;;;12.28;81.91;95955.00;5013917;28;20216;-70
2022/04/25 07:37:33;;;;;;;14.30;12.67;;;;;;;12.14;81.07;95956.53;5032214;28;20272;-71
2022/04/25 07:39:58;;;;;;;15.30;12.90;;;;;;;12.01;80.90;95963.03;5030653;28;20236;-75
2022/04/25 07:42:24;;;;;;;13.87;12.43;;;;;;;12.49;80.23;95961.88;5032565;28;20182;-77
2022/04/25 07:44:49;;;;;;;14.37;12.07;;;;;;;13.15;77.35;95958.63;5031902;28;20191;-71
2022/04/25 07:47:15;;;;;;;13.83;11.17;;;;;;;13.62;73.92;95960.97;5032427;28;20217;-71
2022/04/25 07:49:40;;;;;;;12.20;10.87;;;;;;;14.24;71.59;95965.03;5031257;28;20214;-71
2022/04/25 07:52:07;;;;;;;10.87;9.47;;;;;;;14.20;67.02;95959.53;5032144;28;20664;-71
2022/04/25 07:54:33;;;;;;;10.63;9.60;;;;;;;14.14;68.35;95958.75;5032216;28;20265;-71
2022/04/25 07:56:58;;;;;;;10.77;9.67;;;;;;;14.24;68.33;95962.41;5014533;28;20661;-71
2022/04/25 07:59:24;;;;;;;12.57;10.53;;;;;;;14.42;67.89;95967.09;5031847;28;20711;-71
2022/04/25 08:01:50;;;;;;;10.17;9.10;;;;;;;14.48;66.89;95971.31;5030889;28;20269;-72
2022/04/25 08:04:15;;;;;;;9.77;8.77;;;;;;;13.98;68.27;95969.59;5031855;28;20237;-71
2022/04/25 08:06:41;;;;;;;10.50;9.27;;;;;;;13.72;67.57;95964.38;5031901;28;20190;-71
2022/04/25 08:09:06;;;;;;;10.57;9.47;;;;;;;13.17;69.09;95970.47;5031754;28;20218;-71
2022/04/25 08:11:32;;;;;;;10.83;9.70;;;;;;;12.46;72.35;95974.78;5031542;28;20195;-70
2022/04/25 08:19:26;;;;;;;10.50;9.20;;;;;;;12.97;71.71;95980.16;5032341;28;20648;-70
2022/04/25 08:21:53;;;;;;;10.47;9.37;;;;;;;13.14;70.95;95975.47;5031657;28;20266;-71
2022/04/25 08:24:18;;;;;;;11.50;9.67;;;;;;;13.52;69.62;95974.94;5032311;28;20183;-71
2022/04/25 08:26:44;;;;;;;10.10;9.10;;;;;;;13.88;67.76;95969.59;5015065;28;20270;-71
2022/04/25 08:29:10;;;;;;;12.93;10.97;;;;;;;13.35;68.08;95981.53;5035031;28;20197;-71
2022/04/25 08:31:36;;;;;;;12.53;11.00;;;;;;;13.30;67.75;95985.75;5034887;28;20178;-70
2022/04/25 08:34:04;;;;;;;11.57;10.37;;;;;;;13.02;68.66;95982.78;5017322;28;20297;-71
2022/04/25 08:36:30;;;;;;;12.00;10.70;;;;;;;13.03;69.30;95987.78;5017984;28;20189;-70
2022/04/25 08:38:55;;;;;;;12.23;9.57;;;;;;;12.99;69.13;95991.97;5035314;28;20221;-71
2022/04/25 08:41:29;;;;;;;11.67;10.40;;;;;;;13.49;69.23;95999.16;5035134;28;20210;-71
2022/04/25 08:43:55;;;;;;;12.20;10.80;;;;;;;14.11;67.31;95998.00;5035260;28;20589;-71
2022/04/25 08:46:21;;;;;;;12.40;11.03;;;;;;;14.53;66.20;95997.66;5019540;28;20652;-71
2022/04/25 08:48:49;;;;;;;12.80;11.47;;;;;;;14.52;64.56;96004.75;5035373;28;20175;-70
2022/04/25 08:51:15;;;;;;;13.27;11.13;;;;;;;14.14;66.32;95998.28;5035340;28;20305;-70
2022/04/25 08:53:43;;;;;;;11.90;10.47;;;;;;;14.30;66.50;96000.84;5035224;28;20727;-71
2022/04/25 08:56:09;;;;;;;11.87;10.67;;;;;;;13.94;67.71;96008.84;5035170;28;20171;-72
2022/04/25 08:58:40;;;;;;;13.00;11.47;;;;;;;14.37;65.74;96007.47;5035265;28;20551;-72
2022/04/25 09:01:06;;;;;;;12.73;10.90;;;;;;;14.28;66.45;96006.41;5034650;28;20586;-71
2022/04/25 09:03:32;;;;;;;14.33;12.00;;;;;;;13.41;67.73;96010.22;5034816;28;20218;-70
2022/04/25 09:05:58;;;;;;;12.97;10.90;;;;;;;13.63;68.39;96015.22;5034786;28;20274;-70
2022/04/25 09:08:24;;;;;;;12.70;10.70;;;;;;;14.09;67.07;96021.22;5034630;28;20186;-71
2022/04/25 09:10:50;;;;;;;12.40;11.07;;;;;;;14.15;67.40;96023.56;5034050;28;20179;-70
2022/04/25 09:13:16;;;;;;;12.30;11.00;;;;;;;13.91;66.65;96024.41;5034114;28;20614;-71
2022/04/25 09:15:41;;;;;;;13.10;11.70;;;;;;;13.79;68.27;96027.31;5034581;28;20178;-70
2022/04/25 09:18:07;;;;;;;14.17;10.57;;;;;;;14.19;66.96;96028.31;5034946;28;20680;-71
2022/04/25 09:20:33;;;;;;;10.93;9.80;;;;;;;14.70;66.30;96037.66;5034471;28;20640;-71
2022/04/25 09:22:58;;;;;;;10.77;9.67;;;;;;;14.68;66.62;96042.41;5034333;28;20183;-71
2022/04/25 09:25:24;;;;;;;14.37;10.10;;;;;;;14.29;66.97;96036.97;5033869;28;20254;-70
2022/04/25 09:28:14;;;;;;;11.17;9.97;;;;;;;14.35;66.91;96040.38;5033771;28;20205;-70
2022/04/25 09:31:00;;;;;;;11.47;9.87;;;;;;;14.52;65.38;96040.88;5034136;28;20181;-70
2022/04/25 09:33:25;;;;;;;12.07;10.50;;;;;;;14.44;66.32;96038.78;5034470;28;20198;-71
2022/04/25 09:35:55;;;;;;;12.67;10.80;;;;;;;14.74;65.08;96045.81;5034405;28;20191;-71
2022/04/25 09:38:35;;;;;;;13.13;11.00;;;;;;;14.91;64.48;96049.69;5033504;28;20277;-70
2022/04/25 09:41:02;;;;;;;12.00;10.67;;;;;;;14.63;65.02;96037.16;5033820;28;20233;-71
2022/04/25 09:43:30;;;;;;;11.77;10.57;;;;;;;14.85;64.86;96047.34;5033727;28;20594;-71
2022/04/25 09:46:03;;;;;;;12.20;11.00;;;;;;;14.53;66.17;96043.25;5034434;28;20229;-71
2022/04/25 09:48:29;;;;;;;12.13;10.83;;;;;;;14.71;66.47;96041.84;5016175;28;20187;-72
2022/04/25 09:51:08;;;;;;;11.57;10.37;;;;;;;15.00;65.02;96044.63;5033802;28;20301;-71
2022/04/25 09:53:53;;;;;;;14.33;10.97;;;;;;;15.32;62.33;96049.47;5016193;28;20218;-70
2022/04/25 09:56:21;;;;;;;13.03;11.10;;;;;;;15.26;62.91;96040.78;5034149;28;20178;-71
2022/04/25 09:59:06;;;;;;;12.80;10.77;;;;;;;15.55;61.20;96038.22;5034276;28;20225;-69
2022/04/25 10:01:37;;;;;;;11.10;10.00;;;;;;;15.45;62.13;96027.69;5033768;28;20186;-71
2022/04/25 10:04:05;;;;;;;12.20;10.93;;;;;;;15.42;61.86;96036.19;5032961;28;20685;-71
2022/04/25 10:06:32;;;;;;;11.40;10.17;;;;;;;16.16;59.61;96019.97;5033615;28;20178;-71
2022/04/25 10:09:03;;;;;;;11.20;10.10;;;;;;;15.13;61.97;96020.28;5030519;28;20557;-71
2022/04/25 10:11:35;;;;;;;12.27;10.67;;;;;;;15.41;61.40;96024.03;5033620;28;20179;-71
2022/04/25 10:14:01;;;;;;;13.40;10.70;;;;;;;14.92;61.92;96032.81;5033431;28;20210;-72
2022/04/25 10:16:28;;;;;;;11.93;10.47;;;;;;;14.60;62.53;96036.91;5033461;28;20543;-71
2022/04/25 10:18:54;;;;;;;11.57;9.80;;;;;;;15.17;61.95;96041.63;5033615;28;20190;-71
2022/04/25 10:21:21;;;;;;;10.20;9.20;;;;;;;15.61;57.92;96036.31;5033233;28;20193;-72
2022/04/25 10:23:46;;;;;;;12.23;10.07;;;;;;;15.39;58.48;96026.16;5015463;28;20191;-71
2022/04/25 10:26:13;;;;;;;11.33;9.27;;;;;;;15.39;60.78;96021.66;5033491;28;20193;-71
2022/04/25 10:28:50;;;;;;;10.70;9.60;;;;;;;15.76;58.22;96028.28;5032790;28;20195;-70
2022/04/25 10:31:26;;;;;;;10.53;9.43;;;;;;;15.71;57.86;96028.34;5033574;28;20186;-71
2022/04/25 10:33:58;;;;;;;10.53;9.43;;;;;;;15.88;57.15;96023.44;5033360;28;20210;-71
2022/04/25 10:36:39;;;;;;;11.53;10.10;;;;;;;16.10;56.94;96017.66;5033189;28;20180;-71
2022/04/25 10:39:12;;;;;;;9.90;8.93;;;;;;;15.32;59.27;96018.53;5033566;28;20225;-72
2022/04/25 10:44:42;;;;;;;9.97;8.97;;;;;;;15.75;57.75;96022.22;5033205;28;20639;-70
2022/04/25 10:47:09;;;;;;;10.00;9.00;;;;;;;16.30;56.71;96022.72;5032313;28;20178;-71
2022/04/25 10:49:37;;;;;;;9.70;8.60;;;;;;;16.74;55.52;96025.16;5032805;28;20186;-71
2022/04/25 10:52:04;;;;;;;9.10;8.20;;;;;;;16.49;55.75;96023.59;5015170;28;20676;-70
2022/04/25 10:54:51;;;;;;;10.27;8.80;;;;;;;16.58;54.73;96021.88;5033080;28;20649;-70
2022/04/25 10:57:17;;;;;;;10.23;8.80;;;;;;;16.08;55.79;96025.88;5020972;28;20174;-70
2022/04/25 10:59:43;;;;;;;9.50;8.43;;;;;;;15.75;57.73;96035.44;5015220;28;20695;-72
2022/04/25 11:02:23;;;;;;;10.63;9.53;;;;;;;15.55;58.54;96027.66;5014927;28;20198;-72
2022/04/25 11:05:10;;;;;;;12.70;9.30;;;;;;;15.77;56.91;96035.16;5015899;28;20226;-71
2022/04/25 11:07:37;;;;;;;11.03;9.80;;;;;;;15.68;57.26;96045.53;5032156;28;20186;-71
2022/04/25 11:10:07;;;;;;;11.33;9.30;;;;;;;15.86;57.69;96049.34;5014782;28;20229;-71
2022/04/25 11:12:58;;;;;;;10.43;9.33;;;;;;;15.68;57.05;96045.53;5032753;28;20603;-71
2022/04/25 11:15:43;;;;;;;10.50;9.47;;;;;;;16.02;56.13;96047.34;5032207;28;20644;-71
2022/04/25 11:18:30;;;;;;;9.83;8.83;;;;;;;16.50;55.04;96054.25;5018768;28;20206;-71
2022/04/25 11:21:04;;;;;;;10.03;9.03;;;;;;;16.43;55.09;96047.72;5032189;28;20237;-72
2022/04/25 11:23:34;;;;;;;9.17;7.90;;;;;;;16.57;55.02;96051.25;5031897;28;20184;-71
2022/04/25 11:26:01;;;;;;;9.53;8.50;;;;;;;16.83;55.09;96052.56;5031773;28;20645;-70
2022/04/25 11:28:27;;;;;;;10.23;9.23;;;;;;;16.70;54.94;96053.28;5031214;28;20553;-71
2022/04/25 11:31:23;;;;;;;11.97;10.50;;;;;;;15.57;57.42;96067.00;5032534;28;20222;-71
2022/04/25 11:33:51;;;;;;;11.07;9.70;;;;;;;15.22;58.83;96068.00;5010990;28;20237;-71
2022/04/25 11:36:21;;;;;;;13.67;10.10;;;;;;;15.06;59.02;96067.28;5014452;28;20183;-73
2022/04/25 11:41:38;;;;;;;10.60;9.50;;;;;;;15.23;60.20;96074.84;5032068;28;20658;-73
2022/04/25 11:44:07;;;;;;;10.40;9.37;;;;;;;15.07;60.46;96071.50;5013834;28;20201;-72
2022/04/25 11:46:34;;;;;;;10.47;9.30;;;;;;;14.95;63.84;96074.47;5032041;28;20182;-72
2022/04/25 11:49:00;;;;;;;12.23;9.57;;;;;;;14.39;67.15;96073.88;5032268;28;20194;-74
2022/04/25 11:51:30;;;;;;;11.77;10.57;;;;;;;13.98;69.57;96073.16;5031245;28;20191;-73
2022/04/25 11:54:01;;;;;;;12.03;10.73;;;;;;;13.92;75.28;96078.69;5031623;28;20236;-72